Time,TemperatureF,DewpointF,PressureIn,WindDirection,WindDirectionDegrees,WindSpeedMPH,WindSpeedGustMPH,Humidity,HourlyPrecipIn,Conditions,Clouds,dailyrainin,SoftwareType,DateUTC
2013-05-25 00:01:00,41.3,36.2,30.40,ENE,78,0.0,0.0,82,0.00,,,0.00,Wunderground v.1.15,2013-05-25 04:01:00,
2013-05-25 00:06:00,41.1,36.0,30.40,ENE,78,0.0,1.0,82,0.00,,,0.00,Wunderground v.1.15,2013-05-25 04:06:00,
2013-05-25 00:11:00,40.8,36.0,30.40,ENE,78,0.0,0.0,83,0.00,,,0.00,Wunderground v.1.15,2013-05-25 04:11:00,
2013-05-25 00:16:00,40.6,35.8,30.40,ENE,78,0.0,0.0,83,0.00,,,0.00,Wunderground v.1.15,2013-05-25 04:16:00,
2013-05-25 00:21:00,40.3,35.5,30.40,ENE,78,0.0,0.0,83,0.00,,,0.00,Wunderground v.1.15,2013-05-25 04:21:00,
2013-05-25 00:26:00,40.1,35.7,30.40,ENE,78,0.0,0.0,84,0.00,,,0.00,Wunderground v.1.15,2013-05-25 04:26:00,
2013-05-25 00:31:00,39.8,35.4,30.40,ENE,78,0.0,0.0,84,0.00,,,0.00,Wunderground v.1.15,2013-05-25 04:31:00,
2013-05-25 00:36:00,39.6,35.5,30.40,ENE,78,0.0,0.0,85,0.00,,,0.00,Wunderground v.1.15,2013-05-25 04:36:00,
2013-05-25 00:41:00,39.4,35.6,30.41,ENE,78,0.0,0.0,86,0.00,,,0.00,Wunderground v.1.15,2013-05-25 04:41:00,
2013-05-25 00:46:00,39.2,35.4,30.41,ENE,78,0.0,0.0,86,0.00,,,0.00,Wunderground v.1.15,2013-05-25 04:46:00,
2013-05-25 00:51:00,39.0,35.2,30.41,ENE,78,0.0,0.0,86,0.00,,,0.00,Wunderground v.1.15,2013-05-25 04:51:00,
2013-05-25 00:56:00,38.8,35.3,30.41,ENE,78,0.0,0.0,87,0.00,,,0.00,Wunderground v.1.15,2013-05-25 04:56:00,
2013-05-25 01:01:00,38.7,35.2,30.41,ENE,78,0.0,0.0,87,0.00,,,0.00,Wunderground v.1.15,2013-05-25 05:01:00,
2013-05-25 01:06:00,38.6,35.1,30.41,ENE,78,0.0,0.0,87,0.00,,,0.00,Wunderground v.1.15,2013-05-25 05:06:00,
2013-05-25 01:11:00,38.6,35.1,30.41,ENE,78,0.0,0.0,87,0.00,,,0.00,Wunderground v.1.15,2013-05-25 05:11:00,
2013-05-25 01:16:00,38.5,35.3,30.41,ENE,78,0.0,0.0,88,0.00,,,0.00,Wunderground v.1.15,2013-05-25 05:16:00,
2013-05-25 01:21:00,38.4,35.2,30.41,ENE,78,0.0,0.0,88,0.00,,,0.00,Wunderground v.1.15,2013-05-25 05:21:00,
2013-05-25 01:26:00,38.3,35.1,30.41,ENE,78,0.0,0.0,88,0.00,,,0.00,Wunderground v.1.15,2013-05-25 05:26:00,
2013-05-25 01:31:00,38.1,34.9,30.40,ENE,78,0.0,0.0,88,0.00,,,0.00,Wunderground v.1.15,2013-05-25 05:31:00,
2013-05-25 01:36:00,38.0,34.8,30.40,ENE,78,0.0,0.0,88,0.00,,,0.00,Wunderground v.1.15,2013-05-25 05:36:00,
2013-05-25 01:41:00,37.9,34.9,30.40,ENE,78,0.0,0.0,89,0.00,,,0.00,Wunderground v.1.15,2013-05-25 05:41:00,
2013-05-25 01:46:00,37.8,34.8,30.40,ENE,78,0.0,0.0,89,0.00,,,0.00,Wunderground v.1.15,2013-05-25 05:46:00,
2013-05-25 01:51:00,37.7,34.8,30.40,ENE,78,0.0,0.0,89,0.00,,,0.00,Wunderground v.1.15,2013-05-25 05:51:00,
2013-05-25 01:56:00,37.6,34.4,30.40,ENE,78,0.0,0.0,88,0.00,,,0.00,Wunderground v.1.15,2013-05-25 05:56:00,
2013-05-25 02:01:00,37.7,34.5,30.40,ENE,78,0.0,0.0,88,0.00,,,0.00,Wunderground v.1.15,2013-05-25 06:01:00,
2013-05-25 02:06:00,37.7,34.5,30.40,ENE,78,0.0,0.0,88,0.00,,,0.00,Wunderground v.1.15,2013-05-25 06:06:00,
2013-05-25 02:11:00,37.6,34.7,30.40,ENE,78,0.0,0.0,89,0.00,,,0.00,Wunderground v.1.15,2013-05-25 06:11:00,
2013-05-25 02:16:00,37.6,34.7,30.40,ENE,78,0.0,0.0,89,0.00,,,0.00,Wunderground v.1.15,2013-05-25 06:16:00,
2013-05-25 02:21:00,37.5,34.6,30.40,ENE,78,0.0,0.0,89,0.00,,,0.00,Wunderground v.1.15,2013-05-25 06:21:00,
2013-05-25 02:26:00,37.5,34.6,30.41,ENE,78,0.0,0.0,89,0.00,,,0.00,Wunderground v.1.15,2013-05-25 06:26:00,
2013-05-25 02:31:00,37.6,34.9,30.40,ENE,78,0.0,0.0,90,0.00,,,0.00,Wunderground v.1.15,2013-05-25 06:31:00,
2013-05-25 02:36:00,37.6,35.2,30.40,ENE,78,0.0,0.0,91,0.00,,,0.00,Wunderground v.1.15,2013-05-25 06:36:00,
2013-05-25 02:41:00,37.6,35.2,30.40,ENE,78,0.0,0.0,91,0.00,,,0.00,Wunderground v.1.15,2013-05-25 06:41:00,
2013-05-25 02:46:00,37.6,35.2,30.40,ENE,78,0.0,0.0,91,0.00,,,0.00,Wunderground v.1.15,2013-05-25 06:46:00,
2013-05-25 02:51:00,37.6,35.5,30.40,ENE,78,0.0,0.0,92,0.00,,,0.00,Wunderground v.1.15,2013-05-25 06:51:00,
2013-05-25 02:56:00,37.5,35.4,30.40,ENE,78,0.0,0.0,92,0.00,,,0.00,Wunderground v.1.15,2013-05-25 06:56:00,
2013-05-25 03:01:00,37.5,35.4,30.40,ENE,78,0.0,0.0,92,0.00,,,0.00,Wunderground v.1.15,2013-05-25 07:01:00,
2013-05-25 03:06:00,37.5,35.4,30.40,ENE,78,0.0,0.0,92,0.00,,,0.00,Wunderground v.1.15,2013-05-25 07:06:00,
2013-05-25 03:11:00,37.4,35.3,30.40,ENE,78,0.0,0.0,92,0.00,,,0.00,Wunderground v.1.15,2013-05-25 07:11:00,
2013-05-25 03:16:00,37.4,35.3,30.40,ENE,78,0.0,0.0,92,0.00,,,0.00,Wunderground v.1.15,2013-05-25 07:16:00,
2013-05-25 03:21:00,37.3,35.2,30.40,ENE,78,0.0,0.0,92,0.00,,,0.00,Wunderground v.1.15,2013-05-25 07:21:00,
2013-05-25 03:26:00,37.2,35.1,30.40,ENE,78,0.0,0.0,92,0.00,,,0.00,Wunderground v.1.15,2013-05-25 07:26:00,
2013-05-25 03:31:00,37.1,35.0,30.40,ENE,78,0.0,0.0,92,0.00,,,0.00,Wunderground v.1.15,2013-05-25 07:31:00,
2013-05-25 03:36:00,37.1,35.0,30.40,ENE,78,0.0,0.0,92,0.00,,,0.00,Wunderground v.1.15,2013-05-25 07:36:00,
2013-05-25 03:41:00,37.2,35.4,30.40,ENE,78,0.0,0.0,93,0.00,,,0.00,Wunderground v.1.15,2013-05-25 07:41:00,
2013-05-25 03:46:00,37.2,35.4,30.40,ENE,78,0.0,0.0,93,0.00,,,0.00,Wunderground v.1.15,2013-05-25 07:46:00,
2013-05-25 03:51:00,37.2,35.4,30.40,ENE,78,0.0,0.0,93,0.00,,,0.00,Wunderground v.1.15,2013-05-25 07:51:00,
2013-05-25 03:56:00,37.2,35.4,30.40,ENE,78,0.0,0.0,93,0.00,,,0.00,Wunderground v.1.15,2013-05-25 07:56:00,
2013-05-25 04:01:00,37.1,35.3,30.40,ENE,78,0.0,0.0,93,0.00,,,0.00,Wunderground v.1.15,2013-05-25 08:01:00,
2013-05-25 04:06:00,37.1,35.3,30.40,ENE,78,0.0,0.0,93,0.00,,,0.00,Wunderground v.1.15,2013-05-25 08:06:00,
2013-05-25 04:11:00,37.0,35.2,30.40,ENE,78,0.0,0.0,93,0.00,,,0.00,Wunderground v.1.15,2013-05-25 08:11:00,
2013-05-25 04:16:00,37.0,35.2,30.40,ENE,78,0.0,0.0,93,0.00,,,0.00,Wunderground v.1.15,2013-05-25 08:16:00,
2013-05-25 04:21:00,37.0,35.2,30.41,ENE,78,0.0,0.0,93,0.00,,,0.00,Wunderground v.1.15,2013-05-25 08:21:00,
2013-05-25 04:26:00,37.0,35.2,30.40,ENE,78,0.0,0.0,93,0.00,,,0.00,Wunderground v.1.15,2013-05-25 08:26:00,
2013-05-25 04:31:00,37.0,35.2,30.40,ENE,78,0.0,0.0,93,0.00,,,0.00,Wunderground v.1.15,2013-05-25 08:31:00,
2013-05-25 04:35:00,36.9,35.3,30.40,ENE,78,0.0,0.0,94,0.00,,,0.00,Wunderground v.1.15,2013-05-25 08:35:00,
2013-05-25 04:40:00,36.8,35.0,30.40,ENE,78,0.0,0.0,93,0.00,,,0.00,Wunderground v.1.15,2013-05-25 08:40:00,
2013-05-25 04:45:00,36.7,35.1,30.40,ENE,78,0.0,0.0,94,0.00,,,0.00,Wunderground v.1.15,2013-05-25 08:45:00,
2013-05-25 04:50:00,36.5,34.7,30.40,ENE,78,0.0,0.0,93,0.00,,,0.00,Wunderground v.1.15,2013-05-25 08:50:00,
2013-05-25 04:55:00,36.6,35.0,30.40,ENE,78,0.0,0.0,94,0.00,,,0.00,Wunderground v.1.15,2013-05-25 08:55:00,
2013-05-25 05:00:00,36.6,35.0,30.40,ENE,78,0.0,0.0,94,0.00,,,0.00,Wunderground v.1.15,2013-05-25 09:00:00,
2013-05-25 05:05:00,36.8,35.2,30.40,ENE,78,0.0,0.0,94,0.00,,,0.00,Wunderground v.1.15,2013-05-25 09:05:00,
2013-05-25 05:10:00,36.8,35.2,30.40,ENE,78,0.0,0.0,94,0.00,,,0.00,Wunderground v.1.15,2013-05-25 09:10:00,
2013-05-25 05:15:00,36.7,35.1,30.40,ENE,78,0.0,0.0,94,0.00,,,0.00,Wunderground v.1.15,2013-05-25 09:15:00,
2013-05-25 05:20:00,36.8,35.2,30.40,SE,126,0.0,0.0,94,0.00,,,0.00,Wunderground v.1.15,2013-05-25 09:20:00,
2013-05-25 05:25:00,36.7,35.1,30.40,WNW,300,0.0,1.0,94,0.00,,,0.00,Wunderground v.1.15,2013-05-25 09:25:00,
2013-05-25 05:30:00,36.6,35.0,30.39,West,262,0.0,0.0,94,0.00,,,0.00,Wunderground v.1.15,2013-05-25 09:30:00,
2013-05-25 05:35:00,36.5,34.9,30.39,WSW,254,0.0,0.0,94,0.00,,,0.00,Wunderground v.1.15,2013-05-25 09:35:00,
2013-05-25 05:40:00,36.4,34.8,30.39,NW,325,0.0,0.0,94,0.00,,,0.00,Wunderground v.1.15,2013-05-25 09:40:00,
2013-05-25 05:45:00,36.2,34.6,30.39,NW,325,0.0,0.0,94,0.00,,,0.00,Wunderground v.1.15,2013-05-25 09:45:00,
2013-05-25 05:50:00,36.1,34.5,30.40,NW,325,0.0,0.0,94,0.00,,,0.00,Wunderground v.1.15,2013-05-25 09:50:00,
2013-05-25 05:55:00,36.0,34.4,30.40,NW,325,0.0,0.0,94,0.00,,,0.00,Wunderground v.1.15,2013-05-25 09:55:00,
2013-05-25 06:00:00,36.0,34.4,30.39,NW,325,0.0,0.0,94,0.00,,,0.00,Wunderground v.1.15,2013-05-25 10:00:00,
2013-05-25 06:05:00,36.0,34.4,30.40,NW,325,0.0,0.0,94,0.00,,,0.00,Wunderground v.1.15,2013-05-25 10:05:00,
2013-05-25 06:10:00,35.9,34.3,30.40,NW,325,0.0,0.0,94,0.00,,,0.00,Wunderground v.1.15,2013-05-25 10:10:00,
2013-05-25 06:15:00,35.9,34.3,30.40,NW,325,0.0,0.0,94,0.00,,,0.00,Wunderground v.1.15,2013-05-25 10:15:00,
2013-05-25 06:20:00,36.0,34.7,30.40,NW,325,0.0,0.0,95,0.00,,,0.00,Wunderground v.1.15,2013-05-25 10:20:00,
2013-05-25 06:25:00,36.0,34.7,30.41,NW,325,0.0,0.0,95,0.00,,,0.00,Wunderground v.1.15,2013-05-25 10:25:00,
2013-05-25 06:30:00,36.1,34.8,30.41,NW,325,0.0,0.0,95,0.00,,,0.00,Wunderground v.1.15,2013-05-25 10:30:00,
2013-05-25 06:35:00,36.2,34.9,30.41,NW,325,0.0,0.0,95,0.00,,,0.00,Wunderground v.1.15,2013-05-25 10:35:00,
2013-05-25 06:40:00,36.6,35.3,30.41,NW,325,0.0,0.0,95,0.00,,,0.00,Wunderground v.1.15,2013-05-25 10:40:00,
2013-05-25 06:45:00,36.7,35.4,30.41,NW,325,0.0,0.0,95,0.00,,,0.00,Wunderground v.1.15,2013-05-25 10:45:00,
2013-05-25 06:50:00,37.0,35.7,30.41,NW,325,0.0,0.0,95,0.00,,,0.00,Wunderground v.1.15,2013-05-25 10:50:00,
2013-05-25 06:55:00,37.1,35.8,30.41,NW,325,0.0,0.0,95,0.00,,,0.00,Wunderground v.1.15,2013-05-25 10:55:00,
2013-05-25 07:00:00,37.5,36.2,30.41,NW,325,0.0,0.0,95,0.00,,,0.00,Wunderground v.1.15,2013-05-25 11:00:00,
2013-05-25 07:05:00,37.9,36.9,30.41,NW,323,0.0,1.0,96,0.00,,,0.00,Wunderground v.1.15,2013-05-25 11:05:00,
2013-05-25 07:10:00,38.4,37.4,30.42,NW,323,0.0,0.0,96,0.00,,,0.00,Wunderground v.1.15,2013-05-25 11:10:00,
2013-05-25 07:15:00,38.7,37.7,30.41,NW,323,0.0,0.0,96,0.00,,,0.00,Wunderground v.1.15,2013-05-25 11:15:00,
2013-05-25 07:20:00,38.9,37.9,30.42,NW,323,0.0,0.0,96,0.00,,,0.00,Wunderground v.1.15,2013-05-25 11:20:00,
2013-05-25 07:25:00,39.2,37.9,30.42,NW,323,0.0,0.0,95,0.00,,,0.00,Wunderground v.1.15,2013-05-25 11:25:00,
2013-05-25 07:30:00,39.6,38.3,30.42,NW,323,0.0,0.0,95,0.00,,,0.00,Wunderground v.1.15,2013-05-25 11:30:00,
2013-05-25 07:35:00,40.0,38.4,30.42,NW,323,0.0,1.0,94,0.00,,,0.00,Wunderground v.1.15,2013-05-25 11:35:00,
2013-05-25 07:40:00,40.7,38.6,30.42,NW,323,0.0,0.0,92,0.00,,,0.00,Wunderground v.1.15,2013-05-25 11:40:00,
2013-05-25 07:45:00,41.1,38.4,30.43,NW,323,0.0,1.0,90,0.00,,,0.00,Wunderground v.1.15,2013-05-25 11:45:00,
2013-05-25 07:50:00,41.6,37.7,30.42,NW,323,0.0,0.0,86,0.00,,,0.00,Wunderground v.1.15,2013-05-25 11:50:00,
2013-05-25 07:55:00,42.2,37.7,30.42,NW,323,0.0,1.0,84,0.00,,,0.00,Wunderground v.1.15,2013-05-25 11:55:00,
2013-05-25 08:00:00,42.7,37.0,30.43,NW,323,0.0,0.0,80,0.00,,,0.00,Wunderground v.1.15,2013-05-25 12:00:00,
2013-05-25 08:05:00,43.3,37.2,30.43,NW,323,0.0,1.0,79,0.00,,,0.00,Wunderground v.1.15,2013-05-25 12:05:00,
2013-05-25 08:10:00,43.9,37.5,30.43,NW,323,0.0,0.0,78,0.00,,,0.00,Wunderground v.1.15,2013-05-25 12:10:00,
2013-05-25 08:15:00,44.6,37.2,30.44,NW,323,0.0,3.0,75,0.00,,,0.00,Wunderground v.1.15,2013-05-25 12:15:00,
2013-05-25 08:20:00,45.2,37.1,30.44,NW,323,1.0,1.0,73,0.00,,,0.00,Wunderground v.1.15,2013-05-25 12:20:00,
2013-05-25 08:25:00,46.1,36.9,30.44,NW,323,2.0,2.0,70,0.00,,,0.00,Wunderground v.1.15,2013-05-25 12:25:00,
2013-05-25 08:30:00,46.7,35.9,30.44,NW,323,4.0,4.0,66,0.00,,,0.00,Wunderground v.1.15,2013-05-25 12:30:00,
2013-05-25 08:35:00,47.2,35.6,30.44,NNW,332,1.0,5.0,64,0.00,,,0.00,Wunderground v.1.15,2013-05-25 12:35:00,
2013-05-25 08:40:00,47.7,35.3,30.45,NNW,332,1.0,1.0,62,0.00,,,0.00,Wunderground v.1.15,2013-05-25 12:40:00,
2013-05-25 08:45:00,48.1,35.3,30.45,NNW,332,1.0,4.0,61,0.00,,,0.00,Wunderground v.1.15,2013-05-25 12:45:00,
2013-05-25 08:50:00,48.6,35.7,30.45,NE,48,1.0,3.0,61,0.00,,,0.00,Wunderground v.1.15,2013-05-25 12:50:00,
2013-05-25 08:55:00,49.0,35.7,30.45,NE,48,0.0,3.0,60,0.00,,,0.00,Wunderground v.1.15,2013-05-25 12:55:00,
2013-05-25 09:00:00,49.6,36.3,30.45,NE,48,1.0,2.0,60,0.00,,,0.00,Wunderground v.1.15,2013-05-25 13:00:00,
2013-05-25 09:05:00,50.1,35.9,30.45,ENE,65,3.0,5.0,58,0.00,,,0.00,Wunderground v.1.15,2013-05-25 13:05:00,
2013-05-25 09:10:00,50.4,36.2,30.44,ENE,65,2.0,2.0,58,0.00,,,0.00,Wunderground v.1.15,2013-05-25 13:10:00,
2013-05-25 09:15:00,50.7,36.0,30.45,NW,321,2.0,5.0,57,0.00,,,0.00,Wunderground v.1.15,2013-05-25 13:15:00,
2013-05-25 09:20:00,51.0,36.3,30.45,NNW,336,0.0,1.0,57,0.00,,,0.00,Wunderground v.1.15,2013-05-25 13:20:00,
2013-05-25 09:25:00,50.8,34.7,30.45,NNW,335,0.0,5.0,54,0.00,,,0.00,Wunderground v.1.15,2013-05-25 13:25:00,
2013-05-25 09:30:00,50.8,35.7,30.45,NE,46,2.0,2.0,56,0.00,,,0.00,Wunderground v.1.15,2013-05-25 13:30:00,
2013-05-25 09:35:00,51.1,35.5,30.45,NE,41,1.0,3.0,55,0.00,,,0.00,Wunderground v.1.15,2013-05-25 13:35:00,
2013-05-25 09:40:00,51.4,35.3,30.45,NE,55,3.0,3.0,54,0.00,,,0.00,Wunderground v.1.15,2013-05-25 13:40:00,
2013-05-25 09:45:00,51.6,35.0,30.45,NE,55,1.0,3.0,53,0.00,,,0.00,Wunderground v.1.15,2013-05-25 13:45:00,
2013-05-25 09:50:00,51.9,35.8,30.45,NW,326,3.0,3.0,54,0.00,,,0.00,Wunderground v.1.15,2013-05-25 13:50:00,
2013-05-25 09:55:00,52.0,35.4,30.45,NE,49,3.0,3.0,53,0.00,,,0.00,Wunderground v.1.15,2013-05-25 13:55:00,
2013-05-25 10:00:00,52.1,35.5,30.45,NW,324,3.0,3.0,53,0.00,,,0.00,Wunderground v.1.15,2013-05-25 14:00:00,
2013-05-25 10:05:00,52.1,35.5,30.45,NW,321,0.0,3.0,53,0.00,,,0.00,Wunderground v.1.15,2013-05-25 14:05:00,
2013-05-25 10:10:00,52.5,36.3,30.45,NW,321,1.0,2.0,54,0.00,,,0.00,Wunderground v.1.15,2013-05-25 14:10:00,
2013-05-25 10:15:00,53.2,35.5,30.45,NE,53,1.0,3.0,51,0.00,,,0.00,Wunderground v.1.15,2013-05-25 14:15:00,
2013-05-25 10:20:00,53.2,35.5,30.45,NNW,348,2.0,4.0,51,0.00,,,0.00,Wunderground v.1.15,2013-05-25 14:20:00,
2013-05-25 10:25:00,53.3,36.1,30.45,NNW,336,3.0,4.0,52,0.00,,,0.00,Wunderground v.1.15,2013-05-25 14:25:00,
2013-05-25 10:30:00,53.4,36.2,30.45,NW,323,0.0,2.0,52,0.00,,,0.00,Wunderground v.1.15,2013-05-25 14:30:00,
2013-05-25 10:35:00,53.8,36.1,30.44,NW,323,4.0,5.0,51,0.00,,,0.00,Wunderground v.1.15,2013-05-25 14:35:00,
2013-05-25 10:40:00,53.8,36.6,30.44,NNW,340,1.0,2.0,52,0.00,,,0.00,Wunderground v.1.15,2013-05-25 14:40:00,
2013-05-25 10:45:00,54.4,36.1,30.44,NNW,346,2.0,6.0,50,0.00,,,0.00,Wunderground v.1.15,2013-05-25 14:45:00,
2013-05-25 10:50:00,54.5,36.7,30.44,ENE,57,1.0,2.0,51,0.00,,,0.00,Wunderground v.1.15,2013-05-25 14:50:00,
2013-05-25 10:55:00,54.4,36.1,30.44,NNW,333,6.0,8.0,50,0.00,,,0.00,Wunderground v.1.15,2013-05-25 14:55:00,
2013-05-25 11:00:00,54.6,37.3,30.43,WNW,297,1.0,2.0,52,0.00,,,0.00,Wunderground v.1.15,2013-05-25 15:00:00,
2013-05-25 11:05:00,55.7,37.3,30.43,WNW,298,3.0,6.0,50,0.00,,,0.00,Wunderground v.1.15,2013-05-25 15:05:00,
2013-05-25 11:10:00,55.6,36.7,30.43,NNW,339,0.0,2.0,49,0.00,,,0.00,Wunderground v.1.15,2013-05-25 15:10:00,
2013-05-25 11:15:00,56.2,37.3,30.43,NW,323,3.0,5.0,49,0.00,,,0.00,Wunderground v.1.15,2013-05-25 15:15:00,
2013-05-25 11:20:00,56.3,37.4,30.43,NW,318,2.0,3.0,49,0.00,,,0.00,Wunderground v.1.15,2013-05-25 15:20:00,
2013-05-25 11:25:00,56.2,36.8,30.43,WNW,296,1.0,7.0,48,0.00,,,0.00,Wunderground v.1.15,2013-05-25 15:25:00,
2013-05-25 11:30:00,56.3,37.4,30.43,WNW,289,1.0,3.0,49,0.00,,,0.00,Wunderground v.1.15,2013-05-25 15:30:00,
2013-05-25 11:35:00,57.0,37.0,30.43,North,360,5.0,8.0,47,0.00,,,0.00,Wunderground v.1.15,2013-05-25 15:35:00,
2013-05-25 11:40:00,56.9,36.9,30.43,North,5,2.0,3.0,47,0.00,,,0.00,Wunderground v.1.15,2013-05-25 15:40:00,
2013-05-25 11:45:00,56.8,37.3,30.42,WNW,293,3.0,7.0,48,0.00,,,0.00,Wunderground v.1.15,2013-05-25 15:45:00,
2013-05-25 11:50:00,57.2,35.5,30.42,NNW,327,4.0,4.0,44,0.00,,,0.00,Wunderground v.1.15,2013-05-25 15:50:00,
2013-05-25 11:55:00,57.1,35.9,30.42,NNW,341,2.0,5.0,45,0.00,,,0.00,Wunderground v.1.15,2013-05-25 15:55:00,
2013-05-25 12:00:00,57.7,36.5,30.42,NNW,336,3.0,3.0,45,0.00,,,0.00,Wunderground v.1.15,2013-05-25 16:00:00,
2013-05-25 12:05:00,57.6,36.4,30.42,West,279,4.0,8.0,45,0.00,,,0.00,Wunderground v.1.15,2013-05-25 16:05:00,
2013-05-25 12:10:00,57.3,35.6,30.42,NW,304,4.0,4.0,44,0.00,,,0.00,Wunderground v.1.15,2013-05-25 16:10:00,
2013-05-25 12:15:00,57.2,36.0,30.42,NNW,331,2.0,5.0,45,0.00,,,0.00,Wunderground v.1.15,2013-05-25 16:15:00,
2013-05-25 12:20:00,57.6,36.4,30.42,WNW,302,2.0,2.0,45,0.00,,,0.00,Wunderground v.1.15,2013-05-25 16:20:00,
2013-05-25 12:25:00,58.7,35.7,30.42,NNE,30,4.0,5.0,42,0.00,,,0.00,Wunderground v.1.15,2013-05-25 16:25:00,
2013-05-25 12:30:00,59.3,36.2,30.42,NW,317,2.0,2.0,42,0.00,,,0.00,Wunderground v.1.15,2013-05-25 16:30:00,
2013-05-25 12:35:00,59.3,37.4,30.42,West,273,1.0,6.0,44,0.00,,,0.00,Wunderground v.1.15,2013-05-25 16:35:00,
2013-05-25 12:40:00,59.0,35.9,30.42,ENE,69,3.0,3.0,42,0.00,,,0.00,Wunderground v.1.15,2013-05-25 16:40:00,
2013-05-25 12:45:00,59.2,36.7,30.42,NNW,341,0.0,5.0,43,0.00,,,0.00,Wunderground v.1.15,2013-05-25 16:45:00,
2013-05-25 12:50:00,59.4,35.7,30.42,WNW,288,3.0,3.0,41,0.00,,,0.00,Wunderground v.1.15,2013-05-25 16:50:00,
2013-05-25 12:55:00,58.6,36.2,30.42,NW,323,5.0,9.0,43,0.00,,,0.00,Wunderground v.1.15,2013-05-25 16:55:00,
2013-05-25 13:00:00,58.9,35.8,30.42,NW,317,4.0,4.0,42,0.00,,,0.00,Wunderground v.1.15,2013-05-25 17:00:00,
2013-05-25 13:05:00,58.9,35.8,30.42,NW,323,3.0,8.0,42,0.00,,,0.00,Wunderground v.1.15,2013-05-25 17:05:00,
2013-05-25 13:10:00,59.4,36.9,30.41,West,277,4.0,4.0,43,0.00,,,0.00,Wunderground v.1.15,2013-05-25 17:10:00,
2013-05-25 13:15:00,59.3,36.2,30.41,NW,310,6.0,7.0,42,0.00,,,0.00,Wunderground v.1.15,2013-05-25 17:15:00,
2013-05-25 13:20:00,59.9,36.1,30.41,NE,34,1.0,3.0,41,0.00,,,0.00,Wunderground v.1.15,2013-05-25 17:20:00,
2013-05-25 13:25:00,59.8,36.0,30.41,North,11,3.0,7.0,41,0.00,,,0.00,Wunderground v.1.15,2013-05-25 17:25:00,
2013-05-25 13:30:00,59.8,36.6,30.41,NNW,329,1.0,8.0,42,0.00,,,0.00,Wunderground v.1.15,2013-05-25 17:30:00,
2013-05-25 13:35:00,60.1,36.3,30.40,NNE,26,2.0,5.0,41,0.00,,,0.00,Wunderground v.1.15,2013-05-25 17:35:00,
2013-05-25 13:39:00,60.3,37.1,30.41,NNW,334,6.0,7.0,42,0.00,,,0.00,Wunderground v.1.15,2013-05-25 17:39:00,
2013-05-25 13:44:00,60.1,36.9,30.40,WNW,292,1.0,7.0,42,0.00,,,0.00,Wunderground v.1.15,2013-05-25 17:44:00,
2013-05-25 13:49:00,60.0,35.6,30.41,North,355,2.0,9.0,40,0.00,,,0.00,Wunderground v.1.15,2013-05-25 17:49:00,
2013-05-25 13:54:00,59.8,36.0,30.40,North,5,5.0,8.0,41,0.00,,,0.00,Wunderground v.1.15,2013-05-25 17:54:00,
2013-05-25 13:59:00,60.0,36.2,30.40,NW,306,2.0,9.0,41,0.00,,,0.00,Wunderground v.1.15,2013-05-25 17:59:00,
2013-05-25 14:04:00,59.9,36.7,30.40,WNW,300,2.0,7.0,42,0.00,,,0.00,Wunderground v.1.15,2013-05-25 18:04:00,
2013-05-25 14:09:00,60.0,36.8,30.40,NNE,24,1.0,7.0,42,0.00,,,0.00,Wunderground v.1.15,2013-05-25 18:09:00,
2013-05-25 14:14:00,60.2,38.2,30.40,WNW,296,4.0,5.0,44,0.00,,,0.00,Wunderground v.1.15,2013-05-25 18:14:00,
2013-05-25 14:19:00,60.5,37.3,30.40,NW,312,4.0,6.0,42,0.00,,,0.00,Wunderground v.1.15,2013-05-25 18:19:00,
2013-05-25 14:24:00,60.3,36.5,30.40,WNW,300,7.0,9.0,41,0.00,,,0.00,Wunderground v.1.15,2013-05-25 18:24:00,
2013-05-25 14:29:00,60.5,37.9,30.40,West,275,2.0,9.0,43,0.00,,,0.00,Wunderground v.1.15,2013-05-25 18:29:00,
2013-05-25 14:34:00,61.6,38.9,30.39,NNW,327,4.0,5.0,43,0.00,,,0.00,Wunderground v.1.15,2013-05-25 18:34:00,
2013-05-25 14:39:00,61.9,37.3,30.39,North,351,0.0,5.0,40,0.00,,,0.00,Wunderground v.1.15,2013-05-25 18:39:00,
2013-05-25 14:44:00,61.9,37.9,30.39,ENE,67,2.0,5.0,41,0.00,,,0.00,Wunderground v.1.15,2013-05-25 18:44:00,
2013-05-25 14:49:00,61.5,36.9,30.39,NNE,33,3.0,7.0,40,0.00,,,0.00,Wunderground v.1.15,2013-05-25 18:49:00,
2013-05-25 14:54:00,61.3,36.8,30.39,North,5,3.0,8.0,40,0.00,,,0.00,Wunderground v.1.15,2013-05-25 18:54:00,
2013-05-25 14:59:00,61.1,37.2,30.39,NW,326,4.0,8.0,41,0.00,,,0.00,Wunderground v.1.15,2013-05-25 18:59:00,
2013-05-25 15:04:00,61.7,39.0,30.39,NW,320,2.0,6.0,43,0.00,,,0.00,Wunderground v.1.15,2013-05-25 19:04:00,
2013-05-25 15:09:00,62.2,38.2,30.38,ENE,65,3.0,6.0,41,0.00,,,0.00,Wunderground v.1.15,2013-05-25 19:09:00,
2013-05-25 15:14:00,62.7,38.0,30.38,NW,317,6.0,7.0,40,0.00,,,0.00,Wunderground v.1.15,2013-05-25 19:14:00,
2013-05-25 15:19:00,62.5,38.5,30.38,NW,311,3.0,8.0,41,0.00,,,0.00,Wunderground v.1.15,2013-05-25 19:19:00,
2013-05-25 15:24:00,62.2,38.2,30.38,NNW,333,3.0,10.0,41,0.00,,,0.00,Wunderground v.1.15,2013-05-25 19:24:00,
2013-05-25 15:29:00,62.2,38.8,30.38,West,279,3.0,10.0,42,0.00,,,0.00,Wunderground v.1.15,2013-05-25 19:29:00,
2013-05-25 15:34:00,62.2,37.6,30.37,NNW,345,3.0,8.0,40,0.00,,,0.00,Wunderground v.1.15,2013-05-25 19:34:00,
2013-05-25 15:39:00,62.4,37.7,30.37,East,88,2.0,8.0,40,0.00,,,0.00,Wunderground v.1.15,2013-05-25 19:39:00,
2013-05-25 15:44:00,62.2,38.2,30.37,WNW,288,2.0,8.0,41,0.00,,,0.00,Wunderground v.1.15,2013-05-25 19:44:00,
2013-05-25 15:49:00,62.6,39.2,30.37,WNW,289,4.0,8.0,42,0.00,,,0.00,Wunderground v.1.15,2013-05-25 19:49:00,
2013-05-25 15:54:00,62.2,39.4,30.37,NNE,22,6.0,8.0,43,0.00,,,0.00,Wunderground v.1.15,2013-05-25 19:54:00,
2013-05-25 15:59:00,61.9,37.9,30.37,NW,304,8.0,10.0,41,0.00,,,0.00,Wunderground v.1.15,2013-05-25 19:59:00,
2013-05-25 16:04:00,62.1,39.3,30.37,North,355,5.0,5.0,43,0.00,,,0.00,Wunderground v.1.15,2013-05-25 20:04:00,
2013-05-25 16:09:00,62.7,39.3,30.37,WNW,300,5.0,7.0,42,0.00,,,0.00,Wunderground v.1.15,2013-05-25 20:09:00,
2013-05-25 16:14:00,62.5,37.2,30.37,NW,315,4.0,5.0,39,0.00,,,0.00,Wunderground v.1.15,2013-05-25 20:14:00,
2013-05-25 16:19:00,62.1,38.1,30.36,NW,324,0.0,8.0,41,0.00,,,0.00,Wunderground v.1.15,2013-05-25 20:19:00,
2013-05-25 16:24:00,62.6,38.6,30.36,WNW,290,3.0,9.0,41,0.00,,,0.00,Wunderground v.1.15,2013-05-25 20:24:00,
2013-05-25 16:29:00,62.7,38.0,30.36,WNW,296,4.0,9.0,40,0.00,,,0.00,Wunderground v.1.15,2013-05-25 20:29:00,
2013-05-25 16:34:00,62.8,39.4,30.36,NW,313,3.0,12.0,42,0.00,,,0.00,Wunderground v.1.15,2013-05-25 20:34:00,
2013-05-25 16:39:00,62.6,38.6,30.36,North,5,3.0,12.0,41,0.00,,,0.00,Wunderground v.1.15,2013-05-25 20:39:00,
2013-05-25 16:44:00,62.6,39.2,30.36,WNW,293,5.0,5.0,42,0.00,,,0.00,Wunderground v.1.15,2013-05-25 20:44:00,
2013-05-25 16:49:00,62.9,40.0,30.36,WNW,287,4.0,10.0,43,0.00,,,0.00,Wunderground v.1.15,2013-05-25 20:49:00,
2013-05-25 16:54:00,63.1,39.0,30.36,NNE,23,1.0,7.0,41,0.00,,,0.00,Wunderground v.1.15,2013-05-25 20:54:00,
2013-05-25 16:59:00,63.2,38.5,30.36,NNE,33,0.0,7.0,40,0.00,,,0.00,Wunderground v.1.15,2013-05-25 20:59:00,
2013-05-25 17:04:00,63.1,39.0,30.35,WNW,296,4.0,13.0,41,0.00,,,0.00,Wunderground v.1.15,2013-05-25 21:04:00,
2013-05-25 17:09:00,63.2,39.1,30.35,NNW,340,3.0,13.0,41,0.00,,,0.00,Wunderground v.1.15,2013-05-25 21:09:00,
2013-05-25 17:14:00,63.0,38.9,30.35,North,11,6.0,11.0,41,0.00,,,0.00,Wunderground v.1.15,2013-05-25 21:14:00,
2013-05-25 17:19:00,62.5,39.1,30.35,NNW,338,3.0,11.0,42,0.00,,,0.00,Wunderground v.1.15,2013-05-25 21:19:00,
2013-05-25 17:24:00,62.4,40.2,30.35,West,272,1.0,7.0,44,0.00,,,0.00,Wunderground v.1.15,2013-05-25 21:24:00,
2013-05-25 17:29:00,62.6,39.2,30.35,NW,311,4.0,8.0,42,0.00,,,0.00,Wunderground v.1.15,2013-05-25 21:29:00,
2013-05-25 17:34:00,62.6,39.2,30.35,NE,56,0.0,9.0,42,0.00,,,0.00,Wunderground v.1.15,2013-05-25 21:34:00,
2013-05-25 17:39:00,62.8,40.0,30.35,NNW,336,1.0,9.0,43,0.00,,,0.00,Wunderground v.1.15,2013-05-25 21:39:00,
2013-05-25 17:44:00,62.9,40.0,30.34,WNW,290,5.0,6.0,43,0.00,,,0.00,Wunderground v.1.15,2013-05-25 21:44:00,
2013-05-25 17:49:00,63.0,40.1,30.34,NW,312,2.0,7.0,43,0.00,,,0.00,Wunderground v.1.15,2013-05-25 21:49:00,
2013-05-25 17:54:00,63.0,39.5,30.34,NNW,346,5.0,7.0,42,0.00,,,0.00,Wunderground v.1.15,2013-05-25 21:54:00,
2013-05-25 17:59:00,62.6,39.8,30.34,NNE,22,2.0,8.0,43,0.00,,,0.00,Wunderground v.1.15,2013-05-25 21:59:00,
2013-05-25 18:04:00,62.6,39.2,30.34,ENE,61,3.0,5.0,42,0.00,,,0.00,Wunderground v.1.15,2013-05-25 22:04:00,
2013-05-25 18:09:00,62.3,39.5,30.34,NE,48,0.0,5.0,43,0.00,,,0.00,Wunderground v.1.15,2013-05-25 22:09:00,
2013-05-25 18:14:00,62.4,39.6,30.34,ENE,64,1.0,6.0,43,0.00,,,0.00,Wunderground v.1.15,2013-05-25 22:14:00,
2013-05-25 18:19:00,62.0,38.6,30.33,ENE,68,2.0,6.0,42,0.00,,,0.00,Wunderground v.1.15,2013-05-25 22:19:00,
2013-05-25 18:24:00,61.8,39.1,30.33,NNW,340,5.0,5.0,43,0.00,,,0.00,Wunderground v.1.15,2013-05-25 22:24:00,
2013-05-25 18:29:00,62.0,38.0,30.34,ENE,60,4.0,7.0,41,0.00,,,0.00,Wunderground v.1.15,2013-05-25 22:29:00,
2013-05-25 18:34:00,61.8,37.2,30.34,NNW,330,3.0,5.0,40,0.00,,,0.00,Wunderground v.1.15,2013-05-25 22:34:00,
2013-05-25 18:39:00,61.9,37.3,30.34,ENE,61,3.0,5.0,40,0.00,,,0.00,Wunderground v.1.15,2013-05-25 22:39:00,
2013-05-25 18:44:00,62.1,38.7,30.34,NW,317,5.0,5.0,42,0.00,,,0.00,Wunderground v.1.15,2013-05-25 22:44:00,
2013-05-25 18:49:00,62.0,37.4,30.34,ENE,61,5.0,6.0,40,0.00,,,0.00,Wunderground v.1.15,2013-05-25 22:49:00,
2013-05-25 18:54:00,61.6,37.7,30.34,North,360,1.0,4.0,41,0.00,,,0.00,Wunderground v.1.15,2013-05-25 22:54:00,
2013-05-25 18:59:00,61.8,37.8,30.33,NW,315,4.0,9.0,41,0.00,,,0.00,Wunderground v.1.15,2013-05-25 22:59:00,
2013-05-25 19:04:00,61.7,38.4,30.34,North,360,3.0,7.0,42,0.00,,,0.00,Wunderground v.1.15,2013-05-25 23:04:00,
2013-05-25 19:09:00,61.6,37.0,30.33,WNW,299,5.0,8.0,40,0.00,,,0.00,Wunderground v.1.15,2013-05-25 23:09:00,
2013-05-25 19:14:00,61.2,37.9,30.33,NNE,18,0.0,6.0,42,0.00,,,0.00,Wunderground v.1.15,2013-05-25 23:14:00,
2013-05-25 19:19:00,61.3,38.0,30.34,NNE,15,1.0,6.0,42,0.00,,,0.00,Wunderground v.1.15,2013-05-25 23:19:00,
2013-05-25 19:24:00,61.0,36.5,30.34,North,360,1.0,3.0,40,0.00,,,0.00,Wunderground v.1.15,2013-05-25 23:24:00,
2013-05-25 19:29:00,60.8,36.9,30.34,NNW,328,1.0,7.0,41,0.00,,,0.00,Wunderground v.1.15,2013-05-25 23:29:00,
2013-05-25 19:34:00,60.4,34.7,30.34,North,349,4.0,9.0,38,0.00,,,0.00,Wunderground v.1.15,2013-05-25 23:34:00,
2013-05-25 19:39:00,60.1,35.0,30.34,ENE,61,1.0,9.0,39,0.00,,,0.00,Wunderground v.1.15,2013-05-25 23:39:00,
2013-05-25 19:44:00,59.8,34.8,30.34,NE,46,0.0,3.0,39,0.00,,,0.00,Wunderground v.1.15,2013-05-25 23:44:00,
2013-05-25 19:49:00,59.6,34.6,30.34,ENE,62,1.0,7.0,39,0.00,,,0.00,Wunderground v.1.15,2013-05-25 23:49:00,
2013-05-25 19:54:00,59.5,34.5,30.34,NNW,339,4.0,7.0,39,0.00,,,0.00,Wunderground v.1.15,2013-05-25 23:54:00,
2013-05-25 19:59:00,59.4,34.4,30.34,NE,35,1.0,7.0,39,0.00,,,0.00,Wunderground v.1.15,2013-05-25 23:59:00,
2013-05-25 20:04:00,59.2,33.6,30.35,North,349,0.0,4.0,38,0.00,,,0.00,Wunderground v.1.15,2013-05-26 00:04:00,
2013-05-25 20:09:00,59.0,34.1,30.35,NE,45,0.0,4.0,39,0.00,,,0.00,Wunderground v.1.15,2013-05-26 00:09:00,
2013-05-25 20:14:00,58.8,33.9,30.34,NNE,26,0.0,3.0,39,0.00,,,0.00,Wunderground v.1.15,2013-05-26 00:14:00,
2013-05-25 20:19:00,58.5,32.3,30.34,NE,41,2.0,3.0,37,0.00,,,0.00,Wunderground v.1.15,2013-05-26 00:19:00,
2013-05-25 20:24:00,58.1,31.3,30.34,NE,41,1.0,1.0,36,0.00,,,0.00,Wunderground v.1.15,2013-05-26 00:24:00,
2013-05-25 20:29:00,57.8,31.0,30.34,NE,41,1.0,2.0,36,0.00,,,0.00,Wunderground v.1.15,2013-05-26 00:29:00,
2013-05-25 20:34:00,57.5,30.7,30.34,NE,40,1.0,2.0,36,0.00,,,0.00,Wunderground v.1.15,2013-05-26 00:34:00,
2013-05-25 20:39:00,57.2,31.1,30.34,NE,40,0.0,2.0,37,0.00,,,0.00,Wunderground v.1.15,2013-05-26 00:39:00,
2013-05-25 20:44:00,56.9,32.2,30.33,NE,40,0.0,0.0,39,0.00,,,0.00,Wunderground v.1.15,2013-05-26 00:44:00,
2013-05-25 20:49:00,56.6,31.9,30.33,NE,40,0.0,0.0,39,0.00,,,0.00,Wunderground v.1.15,2013-05-26 00:49:00,
2013-05-25 20:54:00,56.3,32.3,30.33,NE,40,0.0,2.0,40,0.00,,,0.00,Wunderground v.1.15,2013-05-26 00:54:00,
2013-05-25 20:59:00,56.0,32.6,30.33,NE,40,0.0,2.0,41,0.00,,,0.00,Wunderground v.1.15,2013-05-26 00:59:00,
2013-05-25 21:04:00,55.7,32.9,30.33,NE,40,0.0,0.0,42,0.00,,,0.00,Wunderground v.1.15,2013-05-26 01:04:00,
2013-05-25 21:09:00,55.3,33.7,30.33,NE,40,0.0,0.0,44,0.00,,,0.00,Wunderground v.1.15,2013-05-26 01:09:00,
2013-05-25 21:14:00,54.9,33.4,30.33,NE,40,0.0,0.0,44,0.00,,,0.00,Wunderground v.1.15,2013-05-26 01:14:00,
2013-05-25 21:19:00,54.3,33.9,30.33,NE,40,0.0,0.0,46,0.00,,,0.00,Wunderground v.1.15,2013-05-26 01:19:00,
2013-05-25 21:24:00,53.8,34.0,30.33,NE,40,0.0,0.0,47,0.00,,,0.00,Wunderground v.1.15,2013-05-26 01:24:00,
2013-05-25 21:29:00,53.3,34.1,30.34,NE,40,0.0,0.0,48,0.00,,,0.00,Wunderground v.1.15,2013-05-26 01:29:00,
2013-05-25 21:34:00,52.9,34.8,30.34,NE,40,0.0,0.0,50,0.00,,,0.00,Wunderground v.1.15,2013-05-26 01:34:00,
2013-05-25 21:39:00,52.4,34.8,30.34,NE,40,0.0,0.0,51,0.00,,,0.00,Wunderground v.1.15,2013-05-26 01:39:00,
2013-05-25 21:44:00,52.1,35.9,30.34,NE,40,0.0,0.0,54,0.00,,,0.00,Wunderground v.1.15,2013-05-26 01:44:00,
2013-05-25 21:49:00,51.6,36.4,30.34,NE,40,0.0,1.0,56,0.00,,,0.00,Wunderground v.1.15,2013-05-26 01:49:00,
2013-05-25 21:54:00,51.2,35.6,30.35,ENE,65,1.0,4.0,55,0.00,,,0.00,Wunderground v.1.15,2013-05-26 01:54:00,
2013-05-25 21:59:00,51.2,36.0,30.35,ENE,66,1.0,4.0,56,0.00,,,0.00,Wunderground v.1.15,2013-05-26 01:59:00,
2013-05-25 22:03:00,51.1,36.8,30.35,ENE,66,2.0,4.0,58,0.00,,,0.00,Wunderground v.1.15,2013-05-26 02:03:00,
2013-05-25 22:08:00,51.1,37.3,30.35,ENE,61,3.0,4.0,59,0.00,,,0.00,Wunderground v.1.15,2013-05-26 02:08:00,
2013-05-25 22:13:00,51.0,37.6,30.36,ENE,69,2.0,5.0,60,0.00,,,0.00,Wunderground v.1.15,2013-05-26 02:13:00,
2013-05-25 22:18:00,50.8,37.8,30.36,ENE,65,1.0,5.0,61,0.00,,,0.00,Wunderground v.1.15,2013-05-26 02:18:00,
2013-05-25 22:23:00,50.5,37.5,30.36,East,80,1.0,5.0,61,0.00,,,0.00,Wunderground v.1.15,2013-05-26 02:23:00,
2013-05-25 22:28:00,50.3,37.8,30.36,East,80,1.0,5.0,62,0.00,,,0.00,Wunderground v.1.15,2013-05-26 02:28:00,
2013-05-25 22:33:00,50.1,37.6,30.36,East,80,1.0,2.0,62,0.00,,,0.00,Wunderground v.1.15,2013-05-26 02:33:00,
2013-05-25 22:38:00,49.7,37.6,30.36,East,80,2.0,3.0,63,0.00,,,0.00,Wunderground v.1.15,2013-05-26 02:38:00,
2013-05-25 22:43:00,49.5,37.4,30.36,East,80,0.0,2.0,63,0.00,,,0.00,Wunderground v.1.15,2013-05-26 02:43:00,
2013-05-25 22:48:00,49.2,37.5,30.36,East,80,0.0,2.0,64,0.00,,,0.00,Wunderground v.1.15,2013-05-26 02:48:00,
2013-05-25 22:53:00,49.0,37.3,30.36,East,80,0.0,2.0,64,0.00,,,0.00,Wunderground v.1.15,2013-05-26 02:53:00,
2013-05-25 22:58:00,48.7,37.5,30.36,East,80,1.0,2.0,65,0.00,,,0.00,Wunderground v.1.15,2013-05-26 02:58:00,
2013-05-25 23:03:00,48.5,37.3,30.36,East,80,1.0,2.0,65,0.00,,,0.00,Wunderground v.1.15,2013-05-26 03:03:00,
2013-05-25 23:08:00,48.3,37.5,30.36,East,80,0.0,2.0,66,0.00,,,0.00,Wunderground v.1.15,2013-05-26 03:08:00,
2013-05-25 23:13:00,48.1,37.7,30.36,East,80,0.0,1.0,67,0.00,,,0.00,Wunderground v.1.15,2013-05-26 03:13:00,
2013-05-25 23:18:00,47.8,37.7,30.36,East,80,1.0,1.0,68,0.00,,,0.00,Wunderground v.1.15,2013-05-26 03:18:00,
2013-05-25 23:23:00,47.6,37.6,30.36,East,80,0.0,0.0,68,0.00,,,0.00,Wunderground v.1.15,2013-05-26 03:23:00,
2013-05-25 23:28:00,47.3,37.6,30.36,East,80,0.0,0.0,69,0.00,,,0.00,Wunderground v.1.15,2013-05-26 03:28:00,
2013-05-25 23:33:00,47.0,37.7,30.36,East,80,0.0,0.0,70,0.00,,,0.00,Wunderground v.1.15,2013-05-26 03:33:00,
2013-05-25 23:38:00,46.7,37.8,30.37,East,80,0.0,0.0,71,0.00,,,0.00,Wunderground v.1.15,2013-05-26 03:38:00,
2013-05-25 23:43:00,46.3,37.4,30.37,East,80,0.0,0.0,71,0.00,,,0.00,Wunderground v.1.15,2013-05-26 03:43:00,
2013-05-25 23:48:00,46.1,37.6,30.37,East,80,0.0,0.0,72,0.00,,,0.00,Wunderground v.1.15,2013-05-26 03:48:00,
2013-05-25 23:53:00,45.8,37.6,30.36,East,80,0.0,0.0,73,0.00,,,0.00,Wunderground v.1.15,2013-05-26 03:53:00,
2013-05-25 23:58:00,45.5,37.3,30.37,East,80,0.0,0.0,73,0.00,,,0.00,Wunderground v.1.15,2013-05-26 03:58:00,